Time;durP1;ratioP1;P1;durP2;ratioP2;P2;SDS_P1;SDS_P2;PMS_P1;PMS_P2;Temp;Humidity;BMP_temperature;BMP_pressure;BME280_temperature;BME280_humidity;BME280_pressure;Samples;Min_cycle;Max_cycle;Signal;HPM_P1;HPM_P2
2023/10/21 00:02:59;;;;;;;20.90;6.50;;;;;;;15.08;100.00;95519.41;6251164;28;20738;-41
2023/10/21 00:06:03;;;;;;;16.13;6.90;;;;;;;15.19;100.00;95537.47;6275623;28;20293;-40
2023/10/21 00:09:06;;;;;;;23.83;6.37;;;;;;;15.21;100.00;95521.84;6274293;28;20218;-42
2023/10/21 00:12:09;;;;;;;21.00;6.97;;;;;;;15.19;100.00;95504.50;6267857;28;20261;-40
2023/10/21 00:15:11;;;;;;;15.73;5.67;;;;;;;15.20;100.00;95519.50;6274506;28;20226;-40
2023/10/21 00:18:14;;;;;;;15.33;6.07;;;;;;;15.15;100.00;95527.72;6254249;28;20226;-40
2023/10/21 00:21:17;;;;;;;15.60;6.47;;;;;;;15.07;100.00;95528.53;6273383;28;20211;-40
2023/10/21 00:24:20;;;;;;;19.90;6.80;;;;;;;15.03;100.00;95524.97;6271796;28;20210;-42
2023/10/21 00:27:23;;;;;;;20.27;6.97;;;;;;;15.01;100.00;95519.91;6272689;28;20227;-41
2023/10/21 00:30:25;;;;;;;20.10;7.40;;;;;;;14.84;100.00;95493.97;6268439;28;20312;-43
2023/10/21 00:33:28;;;;;;;24.73;7.63;;;;;;;15.04;100.00;95507.75;6273353;28;20785;-40
2023/10/21 00:36:30;;;;;;;16.83;7.23;;;;;;;14.86;100.00;95466.81;6271452;28;20226;-39
2023/10/21 00:39:34;;;;;;;21.67;6.03;;;;;;;14.90;100.00;95457.81;6271410;28;20222;-40
2023/10/21 00:42:37;;;;;;;19.73;6.47;;;;;;;14.75;100.00;95441.50;6250722;28;20230;-42
2023/10/21 00:45:39;;;;;;;11.00;5.70;;;;;;;14.82;100.00;95503.41;6251033;28;20230;-42
2023/10/21 00:48:42;;;;;;;17.97;5.40;;;;;;;14.76;100.00;95529.63;6247458;28;20234;-41
2023/10/21 00:51:47;;;;;;;22.30;6.27;;;;;;;14.70;100.00;95553.13;6230865;28;20230;-41
2023/10/21 00:54:50;;;;;;;21.57;6.50;;;;;;;14.66;100.00;95554.88;6248723;28;20234;-41
2023/10/21 00:57:52;;;;;;;21.97;7.80;;;;;;;14.67;100.00;95574.41;6211507;28;20230;-40
2023/10/21 01:00:54;;;;;;;16.00;6.00;;;;;;;14.55;100.00;95574.31;6247428;28;20225;-40
2023/10/21 01:03:57;;;;;;;14.77;5.73;;;;;;;14.46;100.00;95559.00;6245247;28;20821;-40
2023/10/21 01:07:00;;;;;;;16.63;5.80;;;;;;;14.46;100.00;95577.75;6244755;28;20782;-41
2023/10/21 01:10:07;;;;;;;17.20;6.57;;;;;;;14.41;100.00;95577.13;6248383;28;20215;-41
2023/10/21 01:13:10;;;;;;;19.67;6.23;;;;;;;14.39;100.00;95574.00;6248806;28;20714;-41
2023/10/21 01:16:13;;;;;;;16.30;6.87;;;;;;;14.23;100.00;95552.25;6247911;28;20279;-41
2023/10/21 01:19:16;;;;;;;20.87;7.03;;;;;;;14.33;100.00;95577.91;6246810;28;20231;-40
2023/10/21 01:22:18;;;;;;;21.73;6.30;;;;;;;14.29;100.00;95574.31;6244124;28;20223;-40
2023/10/21 01:25:21;;;;;;;18.50;6.67;;;;;;;14.19;100.00;95580.78;6248277;28;20230;-42
2023/10/21 01:28:23;;;;;;;13.27;6.70;;;;;;;14.15;100.00;95574.47;6248752;28;20254;-40
2023/10/21 01:31:25;;;;;;;22.77;7.87;;;;;;;14.15;100.00;95582.50;6246224;28;20243;-40
2023/10/21 01:34:28;;;;;;;14.23;6.20;;;;;;;14.18;100.00;95579.19;6244059;28;21170;-42
2023/10/21 01:37:30;;;;;;;12.40;5.77;;;;;;;14.40;100.00;95586.28;6247859;28;20234;-40
2023/10/21 01:40:33;;;;;;;16.73;6.20;;;;;;;14.48;100.00;95611.50;6243967;28;20306;-41
2023/10/21 01:43:35;;;;;;;17.97;6.90;;;;;;;14.46;100.00;95612.56;6247160;28;20219;-40
2023/10/21 01:46:40;;;;;;;9.17;4.50;;;;;;;14.43;100.00;95596.34;6245374;28;20227;-41
2023/10/21 01:49:42;;;;;;;5.80;3.30;;;;;;;14.84;100.00;95609.22;6247802;28;20227;-42
2023/10/21 01:52:44;;;;;;;3.77;3.30;;;;;;;15.08;100.00;95594.50;6251727;28;20226;-41
2023/10/21 01:55:48;;;;;;;7.20;3.27;;;;;;;14.92;100.00;95578.91;6249829;28;20234;-40
2023/10/21 01:58:53;;;;;;;6.93;4.17;;;;;;;14.93;100.00;95595.81;6247665;28;20231;-41
2023/10/21 02:01:55;;;;;;;4.53;3.63;;;;;;;14.76;100.00;95609.25;6251630;28;20250;-40
2023/10/21 02:05:00;;;;;;;10.47;3.70;;;;;;;14.70;100.00;95606.72;6252555;28;20586;-41
2023/10/21 02:08:10;;;;;;;7.03;3.47;;;;;;;14.45;100.00;95640.47;6251992;28;20639;-39
2023/10/21 02:11:20;;;;;;;5.60;3.00;;;;;;;14.20;100.00;95649.31;6252059;28;20243;-39
2023/10/21 02:14:23;;;;;;;10.00;3.53;;;;;;;14.18;100.00;95636.22;6247591;28;20700;-40
2023/10/21 02:17:25;;;;;;;5.30;3.30;;;;;;;14.08;100.00;95638.41;6250962;28;20230;-42
2023/10/21 02:20:28;;;;;;;4.17;3.00;;;;;;;13.99;100.00;95664.38;6250844;28;20222;-41
2023/10/21 02:23:31;;;;;;;3.43;3.07;;;;;;;13.99;100.00;95664.38;6248648;28;20387;-39
2023/10/21 02:26:33;;;;;;;3.17;2.80;;;;;;;13.81;100.00;95685.00;6255865;28;20694;-40
2023/10/21 02:29:55;;;;;;;3.33;2.90;;;;;;;13.54;100.00;95664.59;6251517;28;20223;-40
2023/10/21 02:33:05;;;;;;;4.10;2.80;;;;;;;13.56;100.00;95673.91;6245843;28;20253;-39
2023/10/21 02:36:08;;;;;;;4.53;3.03;;;;;;;13.56;100.00;95681.91;6249898;28;20753;-40
2023/10/21 02:39:11;;;;;;;4.47;3.33;;;;;;;13.52;100.00;95710.38;6249545;28;20224;-40
2023/10/21 02:42:14;;;;;;;4.70;3.40;;;;;;;13.47;100.00;95712.41;6271685;28;20199;-39
2023/10/21 02:45:16;;;;;;;4.37;2.97;;;;;;;13.40;100.00;95702.94;6246900;28;20293;-40
2023/10/21 02:48:18;;;;;;;3.73;3.00;;;;;;;13.34;100.00;95698.03;6247281;28;20735;-40
2023/10/21 02:51:21;;;;;;;3.53;2.93;;;;;;;13.32;100.00;95695.66;6262237;28;20215;-40
2023/10/21 02:54:23;;;;;;;4.20;2.50;;;;;;;13.26;100.00;95693.44;6249805;28;20618;-42
2023/10/21 02:57:25;;;;;;;3.83;2.93;;;;;;;13.21;100.00;95706.91;6250020;28;20285;-40
2023/10/21 03:00:28;;;;;;;3.50;3.10;;;;;;;13.16;100.00;95715.84;6249689;28;20314;-39
2023/10/21 03:03:30;;;;;;;6.10;2.90;;;;;;;13.13;100.00;95729.81;6246572;28;20227;-39
2023/10/21 03:06:33;;;;;;;3.03;2.80;;;;;;;13.09;100.00;95732.31;6250550;28;20501;-39
2023/10/21 03:09:35;;;;;;;3.47;3.17;;;;;;;13.06;100.00;95745.50;6253085;28;20235;-39
2023/10/21 03:12:38;;;;;;;4.03;2.70;;;;;;;13.05;100.00;95765.28;6250355;28;20243;-40
2023/10/21 03:15:44;;;;;;;3.27;2.87;;;;;;;13.02;100.00;95768.59;6253267;28;20227;-40
2023/10/21 03:18:46;;;;;;;3.33;3.03;;;;;;;13.01;100.00;95757.13;6250872;28;20723;-40
2023/10/21 03:21:49;;;;;;;3.70;3.30;;;;;;;13.03;100.00;95744.22;6234826;28;20226;-39
2023/10/21 03:24:51;;;;;;;5.10;3.30;;;;;;;12.96;100.00;95730.50;6230332;28;20223;-40
2023/10/21 03:27:54;;;;;;;3.67;3.37;;;;;;;12.97;100.00;95724.06;6250282;28;20227;-40
2023/10/21 03:30:56;;;;;;;3.30;3.00;;;;;;;12.98;100.00;95722.19;6251950;28;20718;-42
2023/10/21 03:33:59;;;;;;;3.50;3.20;;;;;;;12.96;100.00;95727.84;6251794;28;20276;-40
2023/10/21 03:37:01;;;;;;;3.50;2.70;;;;;;;12.93;100.00;95739.13;6228096;28;20309;-41
2023/10/21 03:40:05;;;;;;;2.77;2.57;;;;;;;12.85;100.00;95737.16;6251534;28;20234;-40
2023/10/21 03:43:08;;;;;;;5.30;3.47;;;;;;;12.91;100.00;95744.00;6249724;28;20226;-41
2023/10/21 03:46:17;;;;;;;4.00;3.47;;;;;;;12.89;100.00;95765.66;6247775;28;20229;-40
2023/10/21 03:49:19;;;;;;;3.70;3.40;;;;;;;12.86;100.00;95768.16;6251946;28;20228;-48
2023/10/21 03:52:21;;;;;;;5.00;2.97;;;;;;;12.85;100.00;95770.03;6252406;28;20240;-40
2023/10/21 03:55:24;;;;;;;3.00;2.70;;;;;;;12.86;100.00;95765.50;6250928;28;20614;-40
2023/10/21 03:58:27;;;;;;;4.47;3.30;;;;;;;12.70;100.00;95757.03;6245437;28;20225;-42
2023/10/21 04:01:30;;;;;;;4.73;3.23;;;;;;;12.79;100.00;95767.78;6250768;28;20691;-39
2023/10/21 04:04:33;;;;;;;3.23;2.93;;;;;;;12.68;100.00;95774.47;6252282;28;20227;-39
2023/10/21 04:07:36;;;;;;;3.60;3.30;;;;;;;12.76;100.00;95814.63;6217587;28;20606;-39
2023/10/21 04:10:38;;;;;;;5.50;3.43;;;;;;;12.74;100.00;95821.34;6248067;28;20739;-40
2023/10/21 04:13:41;;;;;;;3.60;3.13;;;;;;;12.73;100.00;95833.13;6247967;28;20242;-41
2023/10/21 04:16:44;;;;;;;5.23;3.57;;;;;;;12.64;100.00;95830.38;6249970;28;20317;-40
2023/10/21 04:19:47;;;;;;;4.33;3.67;;;;;;;12.61;100.00;95823.75;6251171;28;20372;-40
2023/10/21 04:22:50;;;;;;;4.00;3.60;;;;;;;12.58;100.00;95829.69;6247392;28;20227;-40
2023/10/21 04:25:52;;;;;;;3.40;3.10;;;;;;;12.40;100.00;95811.91;6249437;28;20223;-43
2023/10/21 04:28:54;;;;;;;3.57;3.27;;;;;;;12.53;100.00;95837.03;6252590;28;20227;-39
2023/10/21 04:31:58;;;;;;;3.00;2.80;;;;;;;12.52;100.00;95836.22;6251517;28;20246;-39
2023/10/21 04:35:01;;;;;;;3.70;3.37;;;;;;;12.50;100.00;95865.09;6249889;28;20250;-41
2023/10/21 04:38:03;;;;;;;3.53;3.23;;;;;;;12.48;100.00;95861.94;6244513;28;20707;-40
2023/10/21 04:41:07;;;;;;;3.50;2.97;;;;;;;12.46;100.00;95864.09;6227490;28;20285;-40
2023/10/21 04:44:13;;;;;;;4.10;3.70;;;;;;;12.38;100.00;95870.94;6255639;28;20222;-40
2023/10/21 04:47:16;;;;;;;4.03;3.63;;;;;;;12.36;100.00;95893.69;6243392;28;20230;-40
2023/10/21 04:50:18;;;;;;;3.83;3.53;;;;;;;12.34;100.00;95902.00;6245918;28;20219;-40
2023/10/21 04:53:21;;;;;;;5.47;3.70;;;;;;;12.32;100.00;95898.06;6248137;28;20233;-39
2023/10/21 04:56:26;;;;;;;4.13;3.60;;;;;;;12.29;100.00;95896.75;6246128;28;20230;-39
2023/10/21 04:59:29;;;;;;;4.80;4.20;;;;;;;12.15;100.00;95879.94;6247604;28;20219;-39
2023/10/21 05:02:31;;;;;;;4.00;3.63;;;;;;;12.29;100.00;95914.66;6252145;28;20231;-40
2023/10/21 05:05:34;;;;;;;4.97;3.13;;;;;;;12.27;100.00;95924.84;6248615;28;20227;-40
2023/10/21 05:08:37;;;;;;;3.83;3.47;;;;;;;12.21;100.00;95939.38;6249278;28;20246;-39
2023/10/21 05:11:40;;;;;;;3.33;3.00;;;;;;;12.18;100.00;95950.66;6246567;28;20245;-40
2023/10/21 05:14:42;;;;;;;3.60;3.30;;;;;;;11.93;100.00;95915.31;6250482;28;20245;-39
2023/10/21 05:17:44;;;;;;;5.07;3.50;;;;;;;12.14;100.00;95951.22;6249502;28;20223;-40
2023/10/21 05:20:47;;;;;;;3.50;3.20;;;;;;;12.07;100.00;95950.03;6228397;28;20257;-41
2023/10/21 05:23:50;;;;;;;4.20;3.80;;;;;;;11.97;100.00;95948.34;6247383;28;20234;-39
2023/10/21 05:26:52;;;;;;;5.07;3.70;;;;;;;12.01;100.00;95968.00;6247991;28;20590;-41
2023/10/21 05:29:55;;;;;;;4.00;3.07;;;;;;;11.95;100.00;95968.38;6249119;28;20234;-39
2023/10/21 05:32:57;;;;;;;4.67;3.13;;;;;;;11.85;100.00;95958.66;6253975;28;20259;-41
2023/10/21 05:36:00;;;;;;;4.27;3.87;;;;;;;11.84;100.00;95971.22;6229887;28;20707;-40
2023/10/21 05:39:03;;;;;;;3.40;3.10;;;;;;;11.90;100.00;95987.94;6242210;28;20226;-40
2023/10/21 05:42:06;;;;;;;3.77;3.47;;;;;;;11.87;100.00;95989.31;6244315;28;20258;-41
2023/10/21 05:45:09;;;;;;;4.03;3.57;;;;;;;11.77;100.00;95980.63;6230547;28;20268;-41
2023/10/21 05:48:12;;;;;;;3.57;3.20;;;;;;;11.81;100.00;95994.97;6227291;28;20203;-39
2023/10/21 05:51:14;;;;;;;5.80;3.50;;;;;;;11.75;100.00;96004.94;6249195;28;20216;-40
2023/10/21 05:54:17;;;;;;;4.40;3.57;;;;;;;11.71;100.00;96005.81;6248051;28;20353;-40
2023/10/21 05:57:19;;;;;;;4.27;3.87;;;;;;;11.68;100.00;96023.19;6248845;28;20218;-39
2023/10/21 06:00:22;;;;;;;3.50;3.20;;;;;;;11.61;100.00;96034.22;6248913;28;20267;-40
2023/10/21 06:03:24;;;;;;;4.63;4.13;;;;;;;11.57;100.00;96038.53;6251181;28;20223;-40
2023/10/21 06:06:26;;;;;;;3.93;3.53;;;;;;;11.52;100.00;96043.13;6249442;28;20234;-39
2023/10/21 06:09:28;;;;;;;5.23;3.80;;;;;;;11.45;100.00;96040.84;6248711;28;20592;-41
2023/10/21 06:12:32;;;;;;;5.27;3.70;;;;;;;11.39;100.00;96041.19;6245849;28;20569;-39
2023/10/21 06:15:35;;;;;;;5.60;4.13;;;;;;;11.34;100.00;96034.84;6259094;28;20235;-40
2023/10/21 06:18:37;;;;;;;4.33;3.50;;;;;;;11.24;100.00;96031.53;6250108;28;20230;-40
2023/10/21 06:21:40;;;;;;;4.40;3.97;;;;;;;11.32;100.00;96068.19;6252202;28;20328;-40
2023/10/21 06:24:43;;;;;;;5.90;4.10;;;;;;;11.32;100.00;96074.31;6247348;28;20296;-40
2023/10/21 06:27:45;;;;;;;4.77;4.27;;;;;;;11.33;100.00;96086.59;6241952;28;20357;-42
2023/10/21 06:30:48;;;;;;;5.27;4.50;;;;;;;11.34;100.00;96085.50;6245058;28;20592;-41
2023/10/21 06:33:50;;;;;;;4.93;4.00;;;;;;;11.49;100.00;96095.19;6249714;28;20548;-39
2023/10/21 06:36:53;;;;;;;3.97;3.53;;;;;;;11.45;100.00;96088.84;6248583;28;20219;-39
2023/10/21 06:39:55;;;;;;;4.07;3.67;;;;;;;11.41;100.00;96085.16;6249173;28;20258;-40
2023/10/21 06:42:58;;;;;;;7.33;4.50;;;;;;;11.42;100.00;96094.72;6248927;28;20238;-41
2023/10/21 06:46:00;;;;;;;4.53;3.90;;;;;;;11.45;100.00;96109.38;6248369;28;20361;-41
2023/10/21 06:49:03;;;;;;;3.93;3.00;;;;;;;11.49;100.00;96113.06;6247289;28;20219;-39
2023/10/21 06:52:05;;;;;;;3.93;3.57;;;;;;;11.54;100.00;96131.66;6250070;28;20389;-39
2023/10/21 06:55:08;;;;;;;3.97;3.30;;;;;;;11.59;100.00;96147.59;6245384;28;20280;-39
2023/10/21 06:58:12;;;;;;;3.17;2.87;;;;;;;11.61;100.00;96151.56;6224721;28;20234;-40
2023/10/21 07:01:14;;;;;;;3.23;2.80;;;;;;;11.46;100.00;96138.41;6240639;28;20714;-40
2023/10/21 07:04:18;;;;;;;3.57;3.27;;;;;;;11.59;100.00;96166.28;6245762;28;20219;-40
2023/10/21 07:07:20;;;;;;;3.53;3.23;;;;;;;11.57;100.00;96174.53;6249094;28;20288;-40
2023/10/21 07:10:23;;;;;;;5.10;3.50;;;;;;;11.53;100.00;96165.53;6246909;28;20241;-40
2023/10/21 07:13:25;;;;;;;5.07;3.43;;;;;;;11.66;100.00;96190.72;6244229;28;21017;-39
2023/10/21 07:16:28;;;;;;;6.27;3.90;;;;;;;11.67;100.00;96199.50;6248471;28;20242;-39
2023/10/21 07:19:30;;;;;;;4.20;3.80;;;;;;;11.66;100.00;96208.59;6247317;28;20234;-39
2023/10/21 07:22:33;;;;;;;4.53;4.10;;;;;;;11.70;100.00;96214.97;6227969;28;20913;-40
2023/10/21 07:25:38;;;;;;;5.43;3.83;;;;;;;11.73;100.00;96219.75;6245109;28;20236;-39
2023/10/21 07:28:40;;;;;;;4.67;3.43;;;;;;;11.73;100.00;96223.19;6247406;28;20231;-40
2023/10/21 07:31:43;;;;;;;6.47;4.23;;;;;;;11.66;100.00;96214.72;6249069;28;20261;-40
2023/10/21 07:34:45;;;;;;;3.50;3.17;;;;;;;11.83;100.00;96232.97;6248061;28;20239;-39
2023/10/21 07:37:47;;;;;;;4.20;3.80;;;;;;;11.91;100.00;96231.53;6231319;28;20287;-39
2023/10/21 07:40:50;;;;;;;4.37;3.43;;;;;;;12.00;100.00;96230.63;6246674;28;20223;-40
2023/10/21 07:43:52;;;;;;;4.80;4.07;;;;;;;12.10;100.00;96243.84;6248178;28;20223;-39
2023/10/21 07:46:54;;;;;;;3.50;3.20;;;;;;;12.18;100.00;96241.63;6246935;28;20956;-38
2023/10/21 07:49:57;;;;;;;3.63;3.23;;;;;;;12.23;100.00;96257.59;6249198;28;20230;-39
2023/10/21 07:53:07;;;;;;;3.80;3.40;;;;;;;12.31;100.00;96263.06;6242004;28;20605;-41
2023/10/21 07:56:09;;;;;;;4.23;3.80;;;;;;;12.42;100.00;96257.59;6248011;28;20273;-38
2023/10/21 07:59:12;;;;;;;3.17;2.87;;;;;;;12.54;100.00;96244.59;6244426;28;20227;-40
2023/10/21 08:02:14;;;;;;;4.87;3.83;;;;;;;12.78;100.00;96239.16;6239032;28;20324;-41
2023/10/21 08:05:17;;;;;;;3.87;3.30;;;;;;;13.06;100.00;96245.41;6230130;28;20223;-39
2023/10/21 08:08:19;;;;;;;3.50;3.20;;;;;;;13.17;100.00;96228.91;6246941;28;20223;-40
2023/10/21 08:11:22;;;;;;;5.53;3.30;;;;;;;13.51;100.00;96253.75;6227919;28;20692;-38
2023/10/21 08:14:27;;;;;;;4.37;2.90;;;;;;;13.51;100.00;96249.19;6243803;28;20227;-38
2023/10/21 08:17:29;;;;;;;3.43;3.07;;;;;;;13.86;100.00;96273.72;6245864;28;20951;-39
2023/10/21 08:20:32;;;;;;;4.33;3.43;;;;;;;13.87;100.00;96260.03;6245973;28;20638;-42
2023/10/21 08:23:34;;;;;;;3.77;3.03;;;;;;;14.13;100.00;96280.94;6248222;28;20223;-40
2023/10/21 08:26:36;;;;;;;3.43;3.13;;;;;;;14.32;100.00;96278.16;6245438;28;20237;-40
2023/10/21 08:29:39;;;;;;;3.43;3.13;;;;;;;14.43;100.00;96277.66;6241813;28;20223;-40
2023/10/21 08:32:41;;;;;;;4.43;3.00;;;;;;;14.59;100.00;96275.47;6231512;28;20219;-40
2023/10/21 08:35:44;;;;;;;2.77;2.57;;;;;;;14.50;100.00;96253.16;6247848;28;20896;-39
2023/10/21 08:38:48;;;;;;;3.43;2.97;;;;;;;14.73;100.00;96285.34;6248187;28;20243;-41
2023/10/21 08:41:50;;;;;;;3.33;2.40;;;;;;;14.76;100.00;96290.88;6245349;28;20737;-40
2023/10/21 08:44:54;;;;;;;8.70;3.60;;;;;;;14.78;100.00;96298.63;6245806;28;20272;-40
2023/10/21 08:47:57;;;;;;;7.17;4.47;;;;;;;14.81;100.00;96304.19;6248587;28;20230;-42
2023/10/21 08:51:02;;;;;;;13.37;10.30;;;;;;;14.85;100.00;96312.41;6241668;28;20700;-41
2023/10/21 08:54:04;;;;;;;10.20;7.67;;;;;;;14.89;100.00;96335.66;6213144;28;20224;-41
2023/10/21 08:57:09;;;;;;;9.07;6.87;;;;;;;14.94;100.00;96348.16;6217832;28;20281;-42
2023/10/21 09:00:13;;;;;;;12.30;8.20;;;;;;;14.99;100.00;96350.72;6224070;28;20216;-40
2023/10/21 09:03:17;;;;;;;9.67;5.87;;;;;;;15.02;100.00;96350.09;6219157;28;20216;-41
2023/10/21 09:06:20;;;;;;;5.97;3.60;;;;;;;15.08;100.00;96342.75;6227787;28;20212;-41
2023/10/21 09:09:26;;;;;;;5.27;3.77;;;;;;;15.12;100.00;96343.72;6223987;28;20230;-43
2023/10/21 09:12:29;;;;;;;7.70;3.50;;;;;;;15.30;100.00;96366.09;6226665;28;20590;-48
2023/10/21 09:15:35;;;;;;;4.23;3.23;;;;;;;15.31;100.00;96351.59;6233775;28;20595;-42
2023/10/21 09:18:38;;;;;;;12.30;6.37;;;;;;;15.59;100.00;96368.38;6233296;28;20240;-45
2023/10/21 09:21:42;;;;;;;9.47;5.37;;;;;;;15.80;100.00;96374.84;6225193;28;20223;-43
2023/10/21 09:24:44;;;;;;;4.77;3.90;;;;;;;15.82;100.00;96366.50;6219135;28;20234;-44
2023/10/21 09:27:53;;;;;;;10.60;5.00;;;;;;;16.13;100.00;96378.03;6230636;28;20728;-46
2023/10/21 09:31:01;;;;;;;4.60;2.87;;;;;;;16.24;100.00;96379.34;6222464;28;20230;-47
2023/10/21 09:34:03;;;;;;;31.87;5.53;;;;;;;16.39;100.00;96362.00;6226600;28;20235;-49
2023/10/21 09:37:06;;;;;;;3.40;2.23;;;;;;;16.60;98.82;96362.25;6227598;28;20694;-49
2023/10/21 09:40:09;;;;;;;2.80;2.50;;;;;;;16.64;98.71;96376.63;6225172;28;20322;-47
2023/10/21 09:43:13;;;;;;;2.67;2.47;;;;;;;16.62;98.74;96373.47;6224652;28;20243;-49
2023/10/21 09:46:19;;;;;;;2.60;2.40;;;;;;;16.62;97.83;96370.78;6226329;28;20752;-47
2023/10/21 09:49:27;;;;;;;3.40;2.23;;;;;;;16.80;95.09;96395.84;6233967;28;20231;-48
2023/10/21 09:52:51;;;;;;;3.27;2.57;;;;;;;16.88;94.02;96392.38;6222581;28;20337;-45
2023/10/21 09:55:55;;;;;;;2.53;2.33;;;;;;;17.01;91.83;96388.75;6216825;28;20244;-51
2023/10/21 09:59:00;;;;;;;2.03;1.83;;;;;;;17.10;90.50;96382.63;6226754;28;20932;-46
2023/10/21 10:02:04;;;;;;;2.17;1.97;;;;;;;17.27;87.05;96391.47;6224249;28;20223;-46
2023/10/21 10:05:09;;;;;;;1.87;1.60;;;;;;;17.36;86.28;96388.00;6226841;28;20223;-48
2023/10/21 10:08:12;;;;;;;2.43;2.23;;;;;;;17.49;86.44;96378.97;6226171;28;20239;-50
2023/10/21 10:11:15;;;;;;;2.57;2.23;;;;;;;17.53;86.47;96383.38;6226788;28;20846;-48
2023/10/21 10:14:18;;;;;;;5.63;1.93;;;;;;;17.36;86.87;96347.63;6227489;28;20714;-49
2023/10/21 10:17:51;;;;;;;2.03;1.83;;;;;;;17.71;86.42;96373.38;6222875;28;20326;-48
2023/10/21 10:20:54;;;;;;;3.40;1.80;;;;;;;17.75;87.26;96368.97;6226143;28;20232;-47
2023/10/21 10:24:02;;;;;;;1.73;1.63;;;;;;;17.76;87.41;96357.09;6221907;28;20226;-48
2023/10/21 10:27:08;;;;;;;2.67;1.70;;;;;;;17.70;85.06;96333.31;6216213;28;20231;-48
2023/10/21 10:30:19;;;;;;;2.00;1.80;;;;;;;17.88;84.67;96358.31;6218189;28;20600;-52
2023/10/21 10:33:26;;;;;;;2.17;1.70;;;;;;;17.91;83.80;96365.78;6213051;28;20720;-48
2023/10/21 10:36:29;;;;;;;1.70;1.60;;;;;;;17.86;84.18;96355.16;6216890;28;20232;-50
2023/10/21 10:39:38;;;;;;;3.57;1.70;;;;;;;18.33;78.71;96380.25;6220218;28;20311;-48
2023/10/21 10:42:43;;;;;;;3.20;1.70;;;;;;;18.42;79.95;96375.59;6216373;28;20319;-47
2023/10/21 10:45:47;;;;;;;2.73;2.00;;;;;;;18.60;72.89;96357.41;6222592;28;20645;-48
2023/10/21 10:48:50;;;;;;;2.77;1.67;;;;;;;18.81;72.83;96376.34;6220705;28;20231;-50
2023/10/21 10:51:53;;;;;;;2.57;1.80;;;;;;;18.81;75.40;96369.06;6218381;28;20223;-47
2023/10/21 10:54:55;;;;;;;2.63;1.53;;;;;;;18.84;73.16;96373.03;6219985;28;20231;-48
2023/10/21 10:57:58;;;;;;;3.57;1.60;;;;;;;19.03;69.78;96372.59;6216854;28;20231;-50
2023/10/21 11:01:01;;;;;;;3.87;1.90;;;;;;;19.09;68.64;96363.16;6224916;28;20598;-50
2023/10/21 11:04:05;;;;;;;1.57;1.40;;;;;;;19.28;66.69;96365.41;6207649;28;20349;-46
2023/10/21 11:07:09;;;;;;;1.57;1.40;;;;;;;19.46;64.05;96371.47;6220950;28;20365;-49
2023/10/21 11:10:14;;;;;;;1.50;1.30;;;;;;;19.50;63.67;96361.56;6216743;28;20227;-48
2023/10/21 11:13:18;;;;;;;2.50;1.40;;;;;;;19.54;65.75;96365.97;6200955;28;20723;-48
2023/10/21 11:16:21;;;;;;;3.70;1.70;;;;;;;19.58;64.93;96380.41;6205614;28;20254;-50
2023/10/21 11:19:23;;;;;;;1.40;1.20;;;;;;;19.67;64.54;96382.28;6225590;28;20257;-47
2023/10/21 11:22:26;;;;;;;3.20;1.47;;;;;;;19.80;60.58;96379.28;6219158;28;20592;-48
2023/10/21 11:25:29;;;;;;;1.30;1.20;;;;;;;19.72;63.06;96361.25;6225482;28;20266;-48
2023/10/21 11:28:32;;;;;;;3.53;1.40;;;;;;;19.84;63.30;96372.06;6225037;28;20224;-46
2023/10/21 11:31:35;;;;;;;3.87;1.33;;;;;;;19.91;64.34;96371.53;6217532;28;20240;-48
2023/10/21 11:34:38;;;;;;;2.40;1.50;;;;;;;20.24;56.99;96387.69;6220434;28;20267;-49
2023/10/21 11:37:40;;;;;;;2.27;1.40;;;;;;;20.23;57.10;96377.22;6217047;28;20230;-46
2023/10/21 11:40:46;;;;;;;2.50;1.47;;;;;;;20.14;59.07;96387.34;6219733;28;20239;-47
2023/10/21 11:43:52;;;;;;;2.53;1.40;;;;;;;20.15;57.10;96392.44;6220039;28;20765;-46
2023/10/21 11:47:04;;;;;;;2.60;1.47;;;;;;;20.23;59.23;96388.03;6222492;28;20232;-49
2023/10/21 11:50:09;;;;;;;1.60;1.50;;;;;;;20.21;57.57;96384.91;6220868;28;20643;-46
2023/10/21 11:53:13;;;;;;;2.80;1.50;;;;;;;20.30;55.36;96386.38;6219259;28;20219;-47
2023/10/21 12:17:02;;;;;;;7.33;1.93;;;;;;;20.52;57.16;96422.28;6221520;28;20322;-48
2023/10/21 12:36:35;;;;;;;2.43;1.50;;;;;;;20.53;56.33;96399.50;6145353;28;20261;-43
2023/10/21 12:39:44;;;;;;;4.50;1.83;;;;;;;20.35;59.76;96393.50;6147872;28;20605;-44
2023/10/21 12:42:48;;;;;;;3.53;1.70;;;;;;;20.23;57.82;96391.53;6145563;28;20233;-45
2023/10/21 12:45:50;;;;;;;2.37;1.70;;;;;;;20.40;55.20;96403.31;6150143;28;20299;-42
2023/10/21 12:48:52;;;;;;;2.70;1.70;;;;;;;20.49;56.06;96404.00;6134618;28;20249;-44
2023/10/21 12:52:04;;;;;;;2.90;1.80;;;;;;;20.60;54.24;96403.22;6144936;28;20237;-44
2023/10/21 12:55:10;;;;;;;3.03;2.03;;;;;;;20.82;52.76;96406.59;6152761;28;20635;-44
2023/10/21 12:58:14;;;;;;;3.83;2.10;;;;;;;20.74;53.06;96386.66;6147381;28;20253;-44
2023/10/21 13:01:19;;;;;;;4.90;1.50;;;;;;;20.81;54.59;96396.91;6154682;28;20230;-45
2023/10/21 13:04:23;;;;;;;1.97;1.67;;;;;;;20.67;53.11;96388.34;6154101;28;20278;-51
2023/10/21 13:07:31;;;;;;;3.87;1.77;;;;;;;20.82;53.29;96387.66;6160549;28;20251;-46
2023/10/21 13:10:34;;;;;;;2.83;1.87;;;;;;;20.99;53.93;96402.88;6233372;28;20235;-58
2023/10/21 13:13:37;;;;;;;5.87;1.80;;;;;;;20.87;54.61;96396.34;6236088;28;20271;-59
2023/10/21 13:16:39;;;;;;;2.83;1.93;;;;;;;20.72;55.79;96401.66;6231995;28;20903;-58
2023/10/21 13:19:42;;;;;;;2.90;1.93;;;;;;;20.77;56.47;96401.41;6228412;28;20232;-59
2023/10/21 13:22:46;;;;;;;4.27;1.80;;;;;;;20.58;55.79;96401.97;6221790;28;20700;-59
2023/10/21 13:25:48;;;;;;;2.43;2.13;;;;;;;20.36;57.36;96403.19;6221757;28;20295;-58
2023/10/21 13:28:51;;;;;;;3.83;2.70;;;;;;;20.20;59.22;96400.34;6217786;28;20695;-59
2023/10/21 13:31:53;;;;;;;3.13;2.13;;;;;;;20.08;59.35;96384.06;6215900;28;20235;-59
2023/10/21 13:34:56;;;;;;;3.40;1.77;;;;;;;20.01;62.34;96391.97;6199506;28;20827;-60
2023/10/21 13:37:58;;;;;;;3.43;2.20;;;;;;;19.73;63.73;96378.25;6221728;28;20231;-60
2023/10/21 13:41:02;;;;;;;1.97;1.60;;;;;;;19.72;65.14;96396.38;6221970;28;20296;-60
2023/10/21 13:44:05;;;;;;;2.60;1.53;;;;;;;19.57;66.42;96395.03;6219655;28;20390;-60
2023/10/21 13:47:08;;;;;;;1.47;1.30;;;;;;;19.45;67.29;96384.16;6220579;28;20227;-59
2023/10/21 13:50:15;;;;;;;5.37;2.80;;;;;;;19.33;65.71;96376.81;6223323;28;20254;-58
2023/10/21 13:53:17;;;;;;;2.23;1.80;;;;;;;19.44;65.29;96373.69;6223087;28;20223;-60
2023/10/21 13:56:19;;;;;;;2.03;1.83;;;;;;;19.40;65.75;96375.47;6222465;28;20231;-60
2023/10/21 13:59:23;;;;;;;2.17;1.40;;;;;;;19.33;66.75;96368.69;6223040;28;20248;-60
2023/10/21 14:02:25;;;;;;;3.27;1.67;;;;;;;19.26;68.08;96365.75;6223121;28;20255;-59
2023/10/21 14:05:28;;;;;;;2.10;1.87;;;;;;;19.20;68.92;96369.75;6204740;28;20219;-60
2023/10/21 14:08:31;;;;;;;2.33;1.60;;;;;;;19.18;70.39;96357.72;6221816;28;20227;-59
2023/10/21 14:11:35;;;;;;;3.27;1.57;;;;;;;19.14;70.62;96354.09;6223841;28;20243;-60
2023/10/21 14:14:37;;;;;;;3.37;2.27;;;;;;;19.14;71.43;96341.38;6219992;28;20595;-60
2023/10/21 14:17:39;;;;;;;2.77;2.13;;;;;;;19.03;72.19;96315.91;6220306;28;20239;-60
2023/10/21 14:20:43;;;;;;;2.13;1.87;;;;;;;19.08;72.93;96330.00;6225379;28;20236;-60
2023/10/21 14:23:45;;;;;;;2.53;1.53;;;;;;;19.01;73.91;96345.94;6223880;28;20228;-59
2023/10/21 14:26:48;;;;;;;2.07;1.77;;;;;;;18.97;74.52;96336.91;6247946;28;20749;-60
2023/10/21 14:30:08;;;;;;;2.10;1.43;;;;;;;18.93;75.35;96329.78;6243933;28;20230;-59
2023/10/21 14:33:15;;;;;;;3.13;1.73;;;;;;;18.85;76.51;96334.13;6221959;28;20224;-60
2023/10/21 14:36:18;;;;;;;2.40;2.00;;;;;;;18.80;77.93;96335.09;6241495;28;20273;-60
2023/10/21 14:39:20;;;;;;;1.87;1.67;;;;;;;18.73;78.61;96337.53;6249235;28;20241;-52
2023/10/21 14:42:23;;;;;;;3.33;1.80;;;;;;;18.70;79.01;96338.19;6248445;28;20318;-60
2023/10/21 14:45:25;;;;;;;3.07;1.60;;;;;;;18.68;79.44;96356.63;6242909;28;20313;-59
2023/10/21 14:48:28;;;;;;;3.63;2.20;;;;;;;18.62;81.01;96359.78;6244892;28;20234;-60
2023/10/21 14:51:30;;;;;;;3.27;2.00;;;;;;;18.59;81.59;96349.66;6247458;28;20255;-58
2023/10/21 14:54:33;;;;;;;2.47;1.93;;;;;;;18.54;81.95;96350.63;6244153;28;20226;-58